createdAt,value
2019-03-23T00:00:45.620Z,7.71
2019-03-23T00:01:45.608Z,7.82
2019-03-23T00:02:45.604Z,7.69
2019-03-23T00:03:45.593Z,7.71
2019-03-23T00:04:45.575Z,7.71
2019-03-23T00:05:45.559Z,7.71
2019-03-23T00:06:45.550Z,7.62
2019-03-23T00:07:45.549Z,7.69
2019-03-23T00:08:45.566Z,7.69
2019-03-23T00:09:45.524Z,7.69
2019-03-23T00:10:45.515Z,7.72
2019-03-23T00:11:45.495Z,7.66
2019-03-23T00:12:45.491Z,7.75
2019-03-23T00:13:45.478Z,7.63
2019-03-23T00:14:45.495Z,7.69
2019-03-23T00:15:45.470Z,7.63
2019-03-23T00:16:45.447Z,7.75
2019-03-23T00:17:45.430Z,7.60
2019-03-23T00:18:45.483Z,7.66
2019-03-23T00:19:45.408Z,7.66
2019-03-23T00:20:45.398Z,7.66
2019-03-23T00:21:45.395Z,7.62
2019-03-23T00:22:45.379Z,7.66
2019-03-23T00:23:45.367Z,7.56
2019-03-23T00:24:45.369Z,7.71
2019-03-23T00:25:45.345Z,7.63
2019-03-23T00:26:47.976Z,7.58
2019-03-23T00:27:45.325Z,7.60
2019-03-23T00:28:45.313Z,7.63
2019-03-23T00:29:45.308Z,7.66
2019-03-23T00:30:45.337Z,7.58
2019-03-23T00:31:45.279Z,7.55
2019-03-23T00:32:45.271Z,7.60
2019-03-23T00:33:45.255Z,7.63
2019-03-23T00:34:45.246Z,7.60
2019-03-23T00:35:45.235Z,7.52
2019-03-23T00:36:45.291Z,7.60
2019-03-23T00:37:45.216Z,7.55
2019-03-23T00:38:45.214Z,7.59
2019-03-23T00:39:45.202Z,7.59
2019-03-23T00:40:45.180Z,7.59
2019-03-23T00:41:45.175Z,7.55
2019-03-23T00:42:45.166Z,7.56
2019-03-23T00:43:45.152Z,7.53
2019-03-23T00:44:45.187Z,7.50
2019-03-23T00:45:45.128Z,7.50
2019-03-23T00:46:45.114Z,7.49
2019-03-23T00:47:45.106Z,7.47
2019-03-23T00:48:45.098Z,7.53
2019-03-23T00:49:45.147Z,7.49
2019-03-23T00:50:45.075Z,7.37
2019-03-23T00:51:45.064Z,7.55
2019-03-23T00:52:45.099Z,7.47
2019-03-23T00:53:45.044Z,7.44
2019-03-23T00:54:45.031Z,7.41
2019-03-23T00:55:45.023Z,7.47
2019-03-23T00:56:45.017Z,7.49
2019-03-23T00:57:45.004Z,7.52
2019-03-23T00:58:44.989Z,7.50
2019-03-23T00:59:44.977Z,7.50
2019-03-23T01:00:44.969Z,7.42
2019-03-23T01:01:44.970Z,7.50
2019-03-23T01:02:44.942Z,7.44
2019-03-23T01:03:44.980Z,7.47
2019-03-23T01:04:44.923Z,7.42
2019-03-23T01:05:44.907Z,7.42
2019-03-23T01:06:52.009Z,7.40
2019-03-23T01:07:45.890Z,7.37
2019-03-23T01:08:44.879Z,7.47
2019-03-23T01:09:44.915Z,7.40
2019-03-23T01:10:44.851Z,7.35
2019-03-23T01:11:44.849Z,7.44
2019-03-23T01:12:44.846Z,7.35
2019-03-23T01:13:44.843Z,7.41
2019-03-23T01:14:44.966Z,7.40
2019-03-23T01:15:44.806Z,7.35
2019-03-23T01:16:44.791Z,7.34
2019-03-23T01:17:44.776Z,7.32
2019-03-23T01:18:44.791Z,7.27
2019-03-23T01:19:44.758Z,7.32
2019-03-23T01:20:49.618Z,7.24
2019-03-23T01:21:45.738Z,7.32
2019-03-23T01:22:44.722Z,7.31
2019-03-23T01:23:44.829Z,7.34
2019-03-23T01:24:44.699Z,7.31
2019-03-23T01:25:44.693Z,7.35
2019-03-23T01:26:44.677Z,7.32
2019-03-23T01:27:44.675Z,7.31
2019-03-23T01:28:44.661Z,7.37
2019-03-23T01:29:44.712Z,7.31
2019-03-23T01:30:44.634Z,7.27
2019-03-23T01:31:44.623Z,7.31
2019-03-23T01:32:44.613Z,7.37
2019-03-23T01:33:44.607Z,7.35
2019-03-23T01:34:44.665Z,7.23
2019-03-23T01:35:44.583Z,7.23
2019-03-23T01:36:44.570Z,7.27
2019-03-23T01:37:44.564Z,7.26
2019-03-23T01:38:44.551Z,7.27
2019-03-23T01:39:44.543Z,7.24
2019-03-23T01:40:44.573Z,7.22
2019-03-23T01:41:44.563Z,7.17
2019-03-23T01:42:44.506Z,7.20
2019-03-23T01:43:44.494Z,7.17
2019-03-23T01:44:44.483Z,7.15
2019-03-23T01:45:44.485Z,7.15
2019-03-23T01:46:44.469Z,7.13
2019-03-23T01:47:44.448Z,7.09
2019-03-23T01:48:44.442Z,7.13
2019-03-23T01:49:44.431Z,7.05
2019-03-23T01:50:44.458Z,7.12
2019-03-23T01:51:44.410Z,7.09
2019-03-23T01:52:44.392Z,7.04
2019-03-23T01:53:44.388Z,7.09
2019-03-23T01:54:44.374Z,7.13
2019-03-23T01:55:44.360Z,7.07
2019-03-23T01:56:44.401Z,7.13
2019-03-23T01:57:44.343Z,7.15
2019-03-23T01:58:44.334Z,7.13
2019-03-23T01:59:44.315Z,7.15
2019-03-23T02:00:44.317Z,7.09
2019-03-23T02:01:44.347Z,7.07
2019-03-23T02:02:44.287Z,7.05
2019-03-23T02:03:44.272Z,7.08
2019-03-23T02:04:44.260Z,7.05
2019-03-23T02:05:44.253Z,7.04
2019-03-23T02:06:44.250Z,7.04
2019-03-23T02:07:44.235Z,7.01
2019-03-23T02:08:44.265Z,6.98
2019-03-23T02:09:44.207Z,6.97
2019-03-23T02:10:44.231Z,6.97
2019-03-23T02:11:44.187Z,6.99
2019-03-23T02:12:44.177Z,7.02
2019-03-23T02:13:44.210Z,7.02
2019-03-23T02:14:44.151Z,7.04
2019-03-23T02:15:44.144Z,6.98
2019-03-23T02:16:44.132Z,6.98
2019-03-23T02:17:44.116Z,7.04
2019-03-23T02:18:44.195Z,6.95
2019-03-23T02:19:44.099Z,6.89
2019-03-23T02:20:44.091Z,6.97
2019-03-23T02:21:44.074Z,7.05
2019-03-23T02:22:44.064Z,6.99
2019-03-23T02:23:44.061Z,6.94
2019-03-23T02:24:44.068Z,6.91
2019-03-23T02:25:44.035Z,6.97
2019-03-23T02:26:44.024Z,6.87
2019-03-23T02:27:44.020Z,6.80
2019-03-23T02:28:44.002Z,6.86
2019-03-23T02:29:44.039Z,6.89
2019-03-23T02:30:43.983Z,6.87
2019-03-23T02:31:43.980Z,6.81
2019-03-23T02:32:44.039Z,6.81
2019-03-23T02:33:43.950Z,6.73
2019-03-23T02:34:43.941Z,6.83
2019-03-23T02:35:43.950Z,6.84
2019-03-23T02:36:43.916Z,6.84
2019-03-23T02:37:43.915Z,6.80
2019-03-23T02:38:43.895Z,6.83
2019-03-23T02:39:43.932Z,6.84
2019-03-23T02:40:43.887Z,6.83
2019-03-23T02:41:43.854Z,6.83
2019-03-23T02:42:43.911Z,6.83
2019-03-23T02:43:43.833Z,6.79
2019-03-23T02:44:43.915Z,6.83
2019-03-23T02:45:43.812Z,6.81
2019-03-23T02:46:43.804Z,6.83
2019-03-23T02:47:43.791Z,6.81
2019-03-23T02:48:43.788Z,6.83
2019-03-23T02:49:43.776Z,6.84
2019-03-23T02:50:43.845Z,6.79
2019-03-23T02:51:43.745Z,6.87
2019-03-23T02:52:43.733Z,6.84
2019-03-23T02:53:43.723Z,6.81
2019-03-23T02:54:43.717Z,6.76
2019-03-23T02:55:43.759Z,6.72
2019-03-23T02:56:43.697Z,6.66
2019-03-23T02:57:43.742Z,6.73
2019-03-23T02:58:43.686Z,6.63
2019-03-23T02:59:43.657Z,6.72
2019-03-23T03:00:43.648Z,6.61
2019-03-23T03:01:43.637Z,6.68
2019-03-23T03:02:43.625Z,6.69
2019-03-23T03:03:43.661Z,6.63
2019-03-23T03:04:43.609Z,6.63
2019-03-23T03:05:43.599Z,6.65
2019-03-23T03:06:43.581Z,6.72
2019-03-23T03:07:44.117Z,6.62
2019-03-23T03:08:43.562Z,6.62
2019-03-23T03:09:43.556Z,6.62
2019-03-23T03:10:43.539Z,6.65
2019-03-23T03:11:43.535Z,6.62
2019-03-23T03:12:43.584Z,6.66
2019-03-23T03:13:43.510Z,6.63
2019-03-23T03:14:43.496Z,6.71
2019-03-23T03:15:43.497Z,6.62
2019-03-23T03:16:43.481Z,6.73
2019-03-23T03:17:43.507Z,6.68
2019-03-23T03:18:44.930Z,6.68
2019-03-23T03:19:43.473Z,6.63
2019-03-23T03:20:43.437Z,6.76
2019-03-23T03:21:43.417Z,6.65
2019-03-23T03:22:43.431Z,6.73
2019-03-23T03:23:43.465Z,6.71
2019-03-23T03:24:43.385Z,6.77
2019-03-23T03:25:43.378Z,6.62
2019-03-23T03:26:43.361Z,6.69
2019-03-23T03:27:43.422Z,6.76
2019-03-23T03:28:43.338Z,6.76
2019-03-23T03:29:43.332Z,6.72
2019-03-23T03:30:43.325Z,6.69
2019-03-23T03:31:43.304Z,6.73
2019-03-23T03:32:43.343Z,6.73
2019-03-23T03:33:43.281Z,6.79
2019-03-23T03:34:43.289Z,6.71
2019-03-23T03:35:43.262Z,6.76
2019-03-23T03:36:43.256Z,6.77
2019-03-23T03:37:55.768Z,6.77
2019-03-23T03:38:44.233Z,6.76
2019-03-23T03:39:43.225Z,6.71
2019-03-23T03:40:43.213Z,6.73
2019-03-23T03:41:43.207Z,6.62
2019-03-23T03:42:43.246Z,6.68
2019-03-23T03:43:43.225Z,6.62
2019-03-23T03:44:43.165Z,6.56
2019-03-23T03:45:43.158Z,6.58
2019-03-23T03:46:43.156Z,6.58
2019-03-23T03:47:43.176Z,6.54
2019-03-23T03:48:43.129Z,6.47
2019-03-23T03:49:43.105Z,6.53
2019-03-23T03:50:43.103Z,6.59
2019-03-23T03:51:43.087Z,6.59
2019-03-23T03:52:43.115Z,6.46
2019-03-23T03:53:43.067Z,6.50
2019-03-23T03:54:43.054Z,6.50
2019-03-23T03:55:43.050Z,6.47
2019-03-23T03:56:43.034Z,6.36
2019-03-23T03:57:43.023Z,6.41
2019-03-23T03:58:43.056Z,6.41
2019-03-23T03:59:50.588Z,6.35
2019-03-23T04:00:42.992Z,6.43
2019-03-23T04:01:42.974Z,6.44
2019-03-23T04:02:42.969Z,6.44
2019-03-23T04:03:43.025Z,6.38
2019-03-23T04:04:42.988Z,6.46
2019-03-23T04:05:42.931Z,6.43
2019-03-23T04:06:42.917Z,6.43
2019-03-23T04:07:42.913Z,6.43
2019-03-23T04:08:42.906Z,6.43
2019-03-23T04:09:42.982Z,6.48
2019-03-23T04:10:42.873Z,6.48
2019-03-23T04:11:42.866Z,6.46
2019-03-23T04:12:42.856Z,6.50
2019-03-23T04:13:42.841Z,6.46
2019-03-23T04:14:42.836Z,6.48
2019-03-23T04:15:42.831Z,6.51
2019-03-23T04:16:42.811Z,6.43
2019-03-23T04:17:42.803Z,6.44
2019-03-23T04:18:42.793Z,6.44
2019-03-23T04:19:42.781Z,6.47
2019-03-23T04:20:42.833Z,6.44
2019-03-23T04:21:42.755Z,6.50
2019-03-23T04:22:42.757Z,6.47
2019-03-23T04:23:42.746Z,6.44
2019-03-23T04:24:42.726Z,6.51
2019-03-23T04:25:42.718Z,6.46
2019-03-23T04:26:42.768Z,6.43
2019-03-23T04:27:42.692Z,6.36
2019-03-23T04:28:42.679Z,6.43
2019-03-23T04:29:42.698Z,6.40
2019-03-23T04:30:42.657Z,6.43
2019-03-23T04:31:42.652Z,6.40
2019-03-23T04:32:42.682Z,6.38
2019-03-23T04:33:42.619Z,6.35
2019-03-23T04:34:42.654Z,6.35
2019-03-23T04:35:42.603Z,6.36
2019-03-23T04:36:42.592Z,6.36
2019-03-23T04:37:42.625Z,6.26
2019-03-23T04:38:42.566Z,6.36
2019-03-23T04:39:42.554Z,6.32
2019-03-23T04:40:42.541Z,6.40
2019-03-23T04:41:42.596Z,6.32
2019-03-23T04:42:42.575Z,6.35
2019-03-23T04:43:42.515Z,6.25
2019-03-23T04:44:42.495Z,6.28
2019-03-23T04:45:42.555Z,6.33
2019-03-23T04:46:44.038Z,6.22
2019-03-23T04:47:42.524Z,6.22
2019-03-23T04:48:42.456Z,6.22
2019-03-23T04:49:42.451Z,6.22
2019-03-23T04:50:42.429Z,6.29
2019-03-23T04:51:42.460Z,6.19
2019-03-23T04:52:42.458Z,6.21
2019-03-23T04:53:42.418Z,6.19
2019-03-23T04:54:42.389Z,6.22
2019-03-23T04:55:42.374Z,6.22
2019-03-23T04:56:42.368Z,6.28
2019-03-23T04:57:42.371Z,6.22
2019-03-23T04:58:42.341Z,6.22
2019-03-23T04:59:42.333Z,6.19
2019-03-23T05:00:42.320Z,6.19
2019-03-23T05:01:42.310Z,6.18
2019-03-23T05:02:42.379Z,6.22
2019-03-23T05:03:42.293Z,6.26
2019-03-23T05:04:42.282Z,6.21
2019-03-23T05:05:42.271Z,6.19
2019-03-23T05:06:42.637Z,6.19
2019-03-23T05:07:42.248Z,6.21
2019-03-23T05:08:42.321Z,6.16
2019-03-23T05:09:42.224Z,6.10
2019-03-23T05:10:42.218Z,6.18
2019-03-23T05:11:42.201Z,6.13
2019-03-23T05:12:42.191Z,6.06
2019-03-23T05:13:42.175Z,6.16
2019-03-23T05:14:42.178Z,6.13
2019-03-23T05:15:42.159Z,6.09
2019-03-23T05:16:42.149Z,6.18
2019-03-23T05:17:42.137Z,6.10
2019-03-23T05:18:42.141Z,6.13
2019-03-23T05:19:42.113Z,6.04
2019-03-23T05:20:42.098Z,6.11
2019-03-23T05:21:42.088Z,6.07
2019-03-23T05:22:42.103Z,6.04
2019-03-23T05:23:42.094Z,6.13
2019-03-23T05:24:42.053Z,6.07
2019-03-23T05:25:42.047Z,6.07
2019-03-23T05:26:42.043Z,6.13
2019-03-23T05:27:42.027Z,6.04
2019-03-23T05:28:42.078Z,6.13
2019-03-23T05:29:42.000Z,6.10
2019-03-23T05:30:41.992Z,6.07
2019-03-23T05:31:41.980Z,6.03
2019-03-23T05:32:41.970Z,6.00
2019-03-23T05:33:41.958Z,6.04
2019-03-23T05:34:41.957Z,6.01
2019-03-23T05:35:41.938Z,6.07
2019-03-23T05:36:41.921Z,6.06
2019-03-23T05:37:41.914Z,6.10
2019-03-23T05:38:44.681Z,6.14
2019-03-23T05:39:42.156Z,6.03
2019-03-23T05:40:41.883Z,6.04
2019-03-23T05:41:41.872Z,6.13
2019-03-23T05:42:41.855Z,6.11
2019-03-23T05:43:41.845Z,6.16
2019-03-23T05:44:41.898Z,6.19
2019-03-23T05:45:41.827Z,6.19
2019-03-23T05:46:41.823Z,6.19
2019-03-23T05:47:41.806Z,6.25
2019-03-23T05:48:41.788Z,6.25
2019-03-23T05:49:41.778Z,6.26
2019-03-23T05:50:41.829Z,6.22
2019-03-23T05:51:41.760Z,6.21
2019-03-23T05:52:41.752Z,6.33
2019-03-23T05:53:41.760Z,6.29
2019-03-23T05:54:41.727Z,6.36
2019-03-23T05:55:41.715Z,6.33
2019-03-23T05:56:41.752Z,6.32
2019-03-23T05:57:41.689Z,6.38
2019-03-23T05:58:41.684Z,6.32
2019-03-23T05:59:41.673Z,6.41
2019-03-23T06:00:41.655Z,6.41
2019-03-23T06:01:41.661Z,6.41
2019-03-23T06:02:41.633Z,6.36
2019-03-23T06:03:41.627Z,6.46
2019-03-23T06:04:41.615Z,6.44
2019-03-23T06:05:41.605Z,6.43
2019-03-23T06:06:41.662Z,6.44
2019-03-23T06:07:41.586Z,6.47
2019-03-23T06:08:41.571Z,6.47
2019-03-23T06:09:41.562Z,6.48
2019-03-23T06:10:41.545Z,6.46
2019-03-23T06:11:41.587Z,6.46
2019-03-23T06:12:41.524Z,6.54
2019-03-23T06:13:41.516Z,6.59
2019-03-23T06:14:41.583Z,6.54
2019-03-23T06:15:41.492Z,6.59
2019-03-23T06:16:41.494Z,6.59
2019-03-23T06:17:41.470Z,6.66
2019-03-23T06:18:41.458Z,6.72
2019-03-23T06:19:41.452Z,6.62
2019-03-23T06:20:41.473Z,6.76
2019-03-23T06:21:42.771Z,6.79
2019-03-23T06:22:41.413Z,6.76
2019-03-23T06:23:41.454Z,6.87
2019-03-23T06:24:41.440Z,6.84
2019-03-23T06:25:41.389Z,6.95
2019-03-23T06:26:41.370Z,6.84
2019-03-23T06:27:41.408Z,6.90
2019-03-23T06:28:41.422Z,6.99
2019-03-23T06:29:41.341Z,7.08
2019-03-23T06:30:41.332Z,7.12
2019-03-23T06:31:41.319Z,7.08
2019-03-23T06:32:41.305Z,7.09
2019-03-23T06:33:41.296Z,7.13
2019-03-23T06:34:41.352Z,7.22
2019-03-23T06:35:41.297Z,7.20
2019-03-23T06:36:41.272Z,7.35
2019-03-23T06:37:41.255Z,7.32
2019-03-23T06:38:41.242Z,7.41
2019-03-23T06:39:41.232Z,7.50
2019-03-23T06:40:41.265Z,7.49
2019-03-23T06:41:41.208Z,7.60
2019-03-23T06:42:41.203Z,7.58
2019-03-23T06:43:41.187Z,7.66
2019-03-23T06:44:41.223Z,7.69
2019-03-23T06:45:41.230Z,7.71
2019-03-23T06:46:41.158Z,7.79
2019-03-23T06:47:41.139Z,7.84
2019-03-23T06:48:41.136Z,7.89
2019-03-23T06:49:41.130Z,7.93
2019-03-23T06:50:41.115Z,7.97
2019-03-23T06:51:41.129Z,8.14
2019-03-23T06:52:41.095Z,8.14
2019-03-23T06:53:41.082Z,8.11
2019-03-23T06:54:41.104Z,8.22
2019-03-23T06:55:41.054Z,8.21
2019-03-23T06:56:41.051Z,8.22
2019-03-23T06:57:41.046Z,8.32
2019-03-23T06:58:41.029Z,8.32
2019-03-23T06:59:41.019Z,8.33
2019-03-23T07:00:41.010Z,8.35
2019-03-23T07:01:41.014Z,8.33
2019-03-23T07:02:40.979Z,8.48
2019-03-23T07:03:40.970Z,8.50
2019-03-23T07:04:40.983Z,8.50
2019-03-23T07:05:40.952Z,8.48
2019-03-23T07:06:40.932Z,8.50
2019-03-23T07:07:40.962Z,8.54
2019-03-23T07:08:40.914Z,8.63
2019-03-23T07:09:40.906Z,8.71
2019-03-23T07:10:40.895Z,8.60
2019-03-23T07:11:40.878Z,8.66
2019-03-23T07:12:40.866Z,8.75
2019-03-23T07:13:40.926Z,8.71
2019-03-23T07:14:40.852Z,8.88
2019-03-23T07:15:40.838Z,8.96
2019-03-23T07:16:40.828Z,8.97
2019-03-23T07:17:40.814Z,9.02
2019-03-23T07:18:40.806Z,9.04
2019-03-23T07:19:40.839Z,9.20
2019-03-23T07:20:40.789Z,9.24
2019-03-23T07:21:40.785Z,9.21
2019-03-23T07:22:40.760Z,9.27
2019-03-23T07:23:40.754Z,9.31
2019-03-23T07:24:40.734Z,9.39
2019-03-23T07:25:40.732Z,9.39
2019-03-23T07:26:40.758Z,9.45
2019-03-23T07:27:40.705Z,9.43
2019-03-23T07:28:40.693Z,9.57
2019-03-23T07:29:40.684Z,9.57
2019-03-23T07:30:40.804Z,9.56
2019-03-23T07:31:40.698Z,9.61
2019-03-23T07:32:41.493Z,9.68
2019-03-23T07:33:40.687Z,9.64
2019-03-23T07:34:40.634Z,9.76
2019-03-23T07:35:40.637Z,9.78
2019-03-23T07:36:40.652Z,9.82
2019-03-23T07:37:40.649Z,9.86
2019-03-23T07:38:40.594Z,9.99
2019-03-23T07:39:40.572Z,9.86
2019-03-23T07:40:40.626Z,9.97
2019-03-23T07:41:40.605Z,10.06
2019-03-23T07:42:40.552Z,10.10
2019-03-23T07:43:40.533Z,10.21
2019-03-23T07:44:40.520Z,10.19
2019-03-23T07:45:40.517Z,10.24
2019-03-23T07:46:40.503Z,10.25
2019-03-23T07:47:40.498Z,10.46
2019-03-23T07:48:40.478Z,10.37
2019-03-23T07:49:40.475Z,10.43
2019-03-23T07:50:40.504Z,10.47
2019-03-23T07:51:40.442Z,10.46
2019-03-23T07:52:40.546Z,10.60
2019-03-23T07:53:40.434Z,10.66
2019-03-23T07:54:40.414Z,10.83
2019-03-23T07:55:40.401Z,10.88
2019-03-23T07:56:40.388Z,10.94
2019-03-23T07:57:40.379Z,10.95
2019-03-23T07:58:40.377Z,11.19
2019-03-23T07:59:40.358Z,11.41
2019-03-23T08:00:41.079Z,11.53
2019-03-23T08:01:40.330Z,11.71
2019-03-23T08:02:40.326Z,11.82
2019-03-23T08:03:40.338Z,12.04
2019-03-23T08:04:40.296Z,12.20
2019-03-23T08:05:40.288Z,12.44
2019-03-23T08:06:40.278Z,12.54
2019-03-23T08:07:40.268Z,12.71
2019-03-23T08:08:40.256Z,12.82
2019-03-23T08:09:40.284Z,12.85
2019-03-23T08:10:40.231Z,13.00
2019-03-23T08:11:40.219Z,13.15
2019-03-23T08:12:40.209Z,13.30
2019-03-23T08:13:40.203Z,13.43
2019-03-23T08:14:40.189Z,13.52
2019-03-23T08:15:40.185Z,13.69
2019-03-23T08:16:40.166Z,13.80
2019-03-23T08:17:40.157Z,14.01
2019-03-23T08:18:40.152Z,14.10
2019-03-23T08:19:40.141Z,14.27
2019-03-23T08:20:40.138Z,14.39
2019-03-23T08:21:40.114Z,14.53
2019-03-23T08:22:40.163Z,14.49
2019-03-23T08:23:40.095Z,14.74
2019-03-23T08:24:40.081Z,14.88
2019-03-23T08:25:40.075Z,14.91
2019-03-23T08:26:40.061Z,14.98
2019-03-23T08:27:41.674Z,15.05
2019-03-23T08:28:40.032Z,15.15
2019-03-23T08:29:40.046Z,15.28
2019-03-23T08:30:40.027Z,15.41
2019-03-23T08:31:40.002Z,15.48
2019-03-23T08:32:40.045Z,15.56
2019-03-23T08:33:39.982Z,15.64
2019-03-23T08:34:39.970Z,15.78
2019-03-23T08:35:39.970Z,15.82
2019-03-23T08:36:39.962Z,15.86
2019-03-23T08:37:39.938Z,15.97
2019-03-23T08:38:39.928Z,15.97
2019-03-23T08:39:48.132Z,16.12
2019-03-23T08:40:40.924Z,16.38
2019-03-23T08:41:39.895Z,16.41
2019-03-23T08:42:39.885Z,16.44
2019-03-23T08:43:39.876Z,16.37
2019-03-23T08:44:39.866Z,16.41
2019-03-23T08:45:39.864Z,16.52
2019-03-23T08:46:39.867Z,16.60
2019-03-23T08:47:39.841Z,16.73
2019-03-23T08:48:39.818Z,16.85
2019-03-23T08:49:39.806Z,16.98
2019-03-23T08:50:39.791Z,17.04
2019-03-23T08:51:39.784Z,17.06
2019-03-23T08:52:39.784Z,17.15
2019-03-23T08:53:39.771Z,17.22
2019-03-23T08:54:39.756Z,17.20
2019-03-23T08:55:39.738Z,17.28
2019-03-23T08:56:39.756Z,17.33
2019-03-23T08:57:41.429Z,17.54
2019-03-23T08:58:39.711Z,17.51
2019-03-23T08:59:39.696Z,17.67
2019-03-23T09:00:39.684Z,17.84
2019-03-23T09:01:39.721Z,17.94
2019-03-23T09:02:39.666Z,18.02
2019-03-23T09:03:39.651Z,17.95
2019-03-23T09:04:39.647Z,18.03
2019-03-23T09:05:39.647Z,18.12
2019-03-23T09:06:39.619Z,18.15
2019-03-23T09:07:39.623Z,18.36
2019-03-23T09:08:39.601Z,18.49
2019-03-23T09:09:39.587Z,18.72
2019-03-23T09:10:39.584Z,18.77
2019-03-23T09:11:39.578Z,18.76
2019-03-23T09:12:39.605Z,18.77
2019-03-23T09:13:40.798Z,18.84
2019-03-23T09:14:39.536Z,18.74
2019-03-23T09:15:39.524Z,18.64
2019-03-23T09:16:39.520Z,18.77
2019-03-23T09:17:39.498Z,18.87
2019-03-23T09:18:39.497Z,18.97
2019-03-23T09:19:39.503Z,18.94
2019-03-23T09:20:39.476Z,19.01
2019-03-23T09:21:39.462Z,19.21
2019-03-23T09:22:39.464Z,19.14
2019-03-23T09:23:39.461Z,19.29
2019-03-23T09:24:39.428Z,19.47
2019-03-23T09:25:39.417Z,19.53
2019-03-23T09:26:39.406Z,19.66
2019-03-23T09:27:39.394Z,19.70
2019-03-23T09:28:39.397Z,19.75
2019-03-23T09:29:39.377Z,19.90
2019-03-23T09:30:39.366Z,19.98
2019-03-23T09:31:39.356Z,19.84
2019-03-23T09:32:39.351Z,19.93
2019-03-23T09:33:39.345Z,19.98
2019-03-23T09:34:39.324Z,20.06
2019-03-23T09:35:39.659Z,20.27
2019-03-23T09:36:41.303Z,20.38
2019-03-23T09:37:39.287Z,20.23
2019-03-23T09:38:39.290Z,20.15
2019-03-23T09:39:39.272Z,20.06
2019-03-23T09:40:39.257Z,20.05
2019-03-23T09:41:39.246Z,20.15
2019-03-23T09:42:39.238Z,20.24
2019-03-23T09:43:39.227Z,20.33
2019-03-23T09:44:39.232Z,20.49
2019-03-23T09:45:39.221Z,20.58
2019-03-23T09:46:39.196Z,20.39
2019-03-23T09:47:39.180Z,20.24
2019-03-23T09:48:39.168Z,20.16
2019-03-23T09:49:39.164Z,20.23
2019-03-23T09:50:39.141Z,20.20
2019-03-23T09:51:39.141Z,20.33
2019-03-23T09:52:39.119Z,20.54
2019-03-23T09:53:39.110Z,20.62
2019-03-23T09:54:39.100Z,20.69
2019-03-23T09:55:39.087Z,20.58
2019-03-23T09:56:39.123Z,20.68
2019-03-23T09:57:39.083Z,20.64
2019-03-23T09:58:39.063Z,20.68
2019-03-23T09:59:39.043Z,20.71
2019-03-23T10:01:55.075Z,21.04
2019-03-23T10:02:55.056Z,21.09
2019-03-23T10:03:55.782Z,21.21
2019-03-23T10:04:55.041Z,21.17
2019-03-23T10:05:55.030Z,21.16
2019-03-23T10:06:55.026Z,21.17
2019-03-23T10:07:55.002Z,21.16
2019-03-23T10:08:55.014Z,21.19
2019-03-23T10:09:54.987Z,21.29
2019-03-23T10:10:54.976Z,21.35
2019-03-23T10:11:54.977Z,21.20
2019-03-23T10:12:54.955Z,21.21
2019-03-23T10:13:54.969Z,21.23
2019-03-23T10:14:54.937Z,21.30
2019-03-23T10:15:54.920Z,21.44
2019-03-23T10:16:54.947Z,21.38
2019-03-23T10:17:54.921Z,21.26
2019-03-23T10:18:54.905Z,21.34
2019-03-23T10:19:54.879Z,21.36
2019-03-23T10:20:54.863Z,21.54
2019-03-23T10:21:54.853Z,21.53
2019-03-23T10:22:54.860Z,21.32
2019-03-23T10:23:54.835Z,21.21
2019-03-23T10:24:54.826Z,21.24
2019-03-23T10:25:54.812Z,21.30
2019-03-23T10:26:54.805Z,21.32
2019-03-23T10:27:54.827Z,21.48
2019-03-23T10:28:54.794Z,21.59
2019-03-23T10:29:54.768Z,21.59
2019-03-23T10:30:54.763Z,21.60
2019-03-23T10:31:55.758Z,21.79
2019-03-23T10:32:54.736Z,21.97
2019-03-23T10:33:54.864Z,22.16
2019-03-23T10:34:54.796Z,22.27
2019-03-23T10:35:54.704Z,22.38
2019-03-23T10:36:54.698Z,22.38
2019-03-23T10:37:54.687Z,22.38
2019-03-23T10:38:54.696Z,22.37
2019-03-23T10:39:54.674Z,22.16
2019-03-23T10:40:54.781Z,22.09
2019-03-23T10:41:54.638Z,22.19
2019-03-23T10:42:54.867Z,22.22
2019-03-23T10:43:55.383Z,22.37
2019-03-23T10:44:54.652Z,22.60
2019-03-23T10:45:54.597Z,22.75
2019-03-23T10:46:54.591Z,23.02
2019-03-23T10:48:54.569Z,23.32
2019-03-23T10:49:54.597Z,23.20
2019-03-23T10:50:54.549Z,23.31
2019-03-23T10:51:54.541Z,23.75
2019-03-23T10:52:54.528Z,23.89
2019-03-23T10:53:54.519Z,24.00
2019-03-23T10:54:54.509Z,23.97
2019-03-23T10:55:54.503Z,23.95
2019-03-23T10:56:54.513Z,23.95
2019-03-23T10:57:54.473Z,24.00
2019-03-23T10:58:54.464Z,24.12
2019-03-23T10:59:54.456Z,24.34
2019-03-23T11:00:54.480Z,24.20
2019-03-23T11:01:54.565Z,24.10
2019-03-23T11:02:54.416Z,24.02
2019-03-23T11:03:54.406Z,23.94
2019-03-23T11:04:54.400Z,23.95
2019-03-23T11:05:54.388Z,24.07
2019-03-23T11:06:54.384Z,24.39
2019-03-23T11:07:54.368Z,24.41
2019-03-23T11:08:54.352Z,24.00
2019-03-23T11:09:54.339Z,23.75
2019-03-23T11:10:54.329Z,23.70
2019-03-23T11:11:54.330Z,23.57
2019-03-23T11:12:54.317Z,23.42
2019-03-23T11:13:54.303Z,23.64
2019-03-23T11:14:54.291Z,23.80
2019-03-23T11:15:54.277Z,23.80
2019-03-23T11:16:54.283Z,23.86
2019-03-23T11:17:54.264Z,23.95
2019-03-23T11:18:54.243Z,24.01
2019-03-23T11:19:54.232Z,23.76
2019-03-23T11:20:54.224Z,23.62
2019-03-23T11:21:54.247Z,23.68
2019-03-23T11:22:54.207Z,24.00
2019-03-23T11:23:54.197Z,24.10
2019-03-23T11:24:54.186Z,24.02
2019-03-23T11:25:54.177Z,24.00
2019-03-23T11:26:54.164Z,24.00
2019-03-23T11:27:54.167Z,23.72
2019-03-23T11:28:54.141Z,23.49
2019-03-23T11:29:54.132Z,23.35
2019-03-23T11:30:54.115Z,23.52
2019-03-23T11:31:54.111Z,23.64
2019-03-23T11:32:54.108Z,23.70
2019-03-23T11:33:54.090Z,23.67
2019-03-23T11:34:54.090Z,23.58
2019-03-23T11:35:58.080Z,23.57
2019-03-23T11:36:54.051Z,23.61
2019-03-23T11:37:54.266Z,23.80
2019-03-23T11:38:54.047Z,23.95
2019-03-23T11:39:54.019Z,23.97
2019-03-23T11:40:55.353Z,23.97
2019-03-23T11:41:54.000Z,23.94
2019-03-23T11:42:53.993Z,24.07
2019-03-23T11:43:53.978Z,24.19
2019-03-23T11:44:54.047Z,24.27
2019-03-23T11:45:53.961Z,24.05
2019-03-23T11:46:53.961Z,23.87
2019-03-23T11:47:53.946Z,24.00
2019-03-23T11:48:53.936Z,23.94
2019-03-23T11:49:53.933Z,24.12
2019-03-23T11:50:53.923Z,24.17
2019-03-23T11:51:53.905Z,24.07
2019-03-23T11:52:53.883Z,23.85
2019-03-23T11:53:53.885Z,23.52
2019-03-23T11:54:53.867Z,23.31
2019-03-23T11:55:53.854Z,23.08
2019-03-23T11:56:53.849Z,22.97
2019-03-23T11:57:53.829Z,22.86
2019-03-23T11:58:54.134Z,22.93
2019-03-23T11:59:53.856Z,22.93
2019-03-23T12:00:53.808Z,22.87
2019-03-23T12:01:53.790Z,22.60
2019-03-23T12:02:53.775Z,22.14
2019-03-23T12:03:53.768Z,21.53
2019-03-23T12:04:53.831Z,21.29
2019-03-23T12:05:53.742Z,21.32
2019-03-23T12:06:53.745Z,21.63
2019-03-23T12:07:53.726Z,21.85
2019-03-23T12:08:53.719Z,22.22
2019-03-23T12:09:55.955Z,22.38
2019-03-23T12:11:02.456Z,22.39
2019-03-23T12:11:54.681Z,22.43
2019-03-23T12:12:53.674Z,22.34
2019-03-23T12:13:53.663Z,22.23
2019-03-23T12:14:53.654Z,22.22
2019-03-23T12:15:53.756Z,22.02
2019-03-23T12:16:53.631Z,21.67
2019-03-23T12:17:53.615Z,21.45
2019-03-23T12:18:53.612Z,21.16
2019-03-23T12:19:53.595Z,20.98
2019-03-23T12:20:53.590Z,20.91
2019-03-23T12:21:53.712Z,20.77
2019-03-23T12:22:53.561Z,20.51
2019-03-23T12:23:53.555Z,20.23
2019-03-23T12:24:53.542Z,19.86
2019-03-23T12:25:53.533Z,19.53
2019-03-23T12:26:53.523Z,19.29
2019-03-23T12:27:53.558Z,19.21
2019-03-23T12:28:53.497Z,18.87
2019-03-23T12:29:53.486Z,18.92
2019-03-23T12:30:53.475Z,19.06
2019-03-23T12:31:53.466Z,19.01
2019-03-23T12:32:53.504Z,19.08
2019-03-23T12:33:53.447Z,18.98
2019-03-23T12:34:53.434Z,18.86
2019-03-23T12:35:53.422Z,19.18
2019-03-23T12:36:53.415Z,19.01
2019-03-23T12:37:53.434Z,18.87
2019-03-23T12:38:53.389Z,18.64
2019-03-23T12:39:53.387Z,18.43
2019-03-23T12:40:53.369Z,18.55
2019-03-23T12:41:53.362Z,18.64
2019-03-23T12:42:53.345Z,18.59
2019-03-23T12:43:53.388Z,18.65
2019-03-23T12:44:53.326Z,18.73
2019-03-23T12:45:53.316Z,18.68
2019-03-23T12:46:53.304Z,18.64
2019-03-23T12:47:53.295Z,18.50
2019-03-23T12:48:53.351Z,18.27
2019-03-23T12:49:53.276Z,17.87
2019-03-23T12:50:53.264Z,17.89
2019-03-23T12:51:53.253Z,17.91
2019-03-23T12:52:53.244Z,17.71
2019-03-23T12:53:53.275Z,17.50
2019-03-23T12:54:53.267Z,17.04
2019-03-23T12:55:53.209Z,16.83
2019-03-23T12:56:53.193Z,17.00
2019-03-23T12:57:53.189Z,17.10
2019-03-23T12:58:53.177Z,17.46
2019-03-23T12:59:53.233Z,17.50
2019-03-23T13:00:53.161Z,17.22
2019-03-23T13:01:53.141Z,17.22
2019-03-23T13:02:53.137Z,16.96
2019-03-23T13:03:53.125Z,16.83
2019-03-23T13:04:53.113Z,16.71
2019-03-23T13:05:53.147Z,16.81
2019-03-23T13:06:53.087Z,17.06
2019-03-23T13:07:53.076Z,17.17
2019-03-23T13:08:53.068Z,17.14
2019-03-23T13:09:53.060Z,17.08